Explorer Of The Seas — C6SE4 — position and weather

sailwx.info

Track history (hours):
 
Tides and Currents Weather Stations Pressure Air Temp Water Temp Dewpoint Dewpoint Depression Visibility Wind Speed Wind Dir Waves Ship Positions

Explorer Of The Seas

Operator: Royal Caribbean Cruises Ltd

Last reported at 2015-Jan-28 09:33 UTC. Time now 2015-Jan-29 04:14 UTC.
Position N 26°12' W 079°13'.

Length 311 m; draft 9.2 m.

Type: Passenger vessel. MMSI: 311316000.

Date/timePositionNaut miles runAvg speedWind from/ knotsBaromVisibWave heightAir tempDewpointWater temp
2015-Jan-28 09:33N 26°12' W 079°13'1211.7
2015-Jan-28 08:33N 26°04' W 079°23'1211.6
2015-Jan-28 07:33N 25°53' W 079°27'1211.7
2015-Jan-28 06:33N 25°42' W 079°30'51617.0
2015-Jan-27 00:12N 20°32' W 086°58'3 3.9
2015-Jan-26 23:29N 20°29' W 086°59'0 0.0
2015-Jan-26 22:29N 20°29' W 086°59'0 0.0
2015-Jan-26 21:29N 20°29' W 086°59'0 0.0
2015-Jan-26 20:29N 20°29' W 086°59'0 0.0
2015-Jan-26 19:32N 20°29' W 086°59'0 0.0
2015-Jan-26 18:32N 20°29' W 086°59'0 0.0
2015-Jan-26 17:32N 20°29' W 086°59'0 0.0
2015-Jan-26 16:32N 20°29' W 086°59'0 0.0
2015-Jan-26 15:32N 20°29' W 086°59'0 0.0
2015-Jan-26 14:32N 20°29' W 086°59'1 0.7
2015-Jan-26 13:33N 20°29' W 086°59'49317.6
2015-Jan-25 09:33N 25°39' W 080°01'3 6.1
2015-Jan-25 09:00N 25°42' W 080°00'1431.3 310 / 131016.8 13.0
2015-Jan-25 08:33N 25°56' W 079°60'1717.0
2015-Jan-25 07:33N 26°13' W 079°58'1717.1
2015-Jan-25 06:33N 26°30' W 079°57'1816.5
2015-Jan-25 05:28N 26°48' W 079°55'1415.4
2015-Jan-25 04:32N 27°02' W 079°54'42 2.0
2015-Jan-24 08:00N 27°42' W 079°42'96 3.9 220 / 191012.0 22.0
2015-Jan-23 07:13N 26°10' W 079°13'1116.7
2015-Jan-23 06:33N 26°03' W 079°23'1818.0
2015-Jan-23 05:34N 25°46' W 079°29'52117.3
2015-Jan-21 23:33N 20°30' W 086°59'1 1.5
2015-Jan-21 22:41N 20°29' W 086°59'0 0.0
2015-Jan-21 22:29N 20°29' W 086°59'0 0.0
2015-Jan-21 21:29N 20°29' W 086°59'0 0.0
2015-Jan-21 20:29N 20°29' W 086°59'0 0.0
2015-Jan-21 19:29N 20°29' W 086°59'0 0.0
2015-Jan-21 18:23N 20°29' W 086°59'0 0.0
2015-Jan-21 17:29N 20°29' W 086°59'0 0.0
2015-Jan-21 16:23N 20°29' W 086°59'0 0.0
2015-Jan-21 15:32N 20°29' W 086°59'0 0.0
2015-Jan-21 14:32N 20°29' W 086°59'0 0.0
2015-Jan-21 13:32N 20°29' W 086°59'0 0.3
2015-Jan-21 12:33N 20°29' W 086°59'1811.8
2015-Jan-21 11:00N 20°12' W 087°06'45 1.8 060 / 91014.3 23.0
2015-Jan-20 10:00N 20°18' W 086°18'36918.0 140 / 51014.4 23.0
2015-Jan-19 13:33N 24°21' W 081°18'2918.7
2015-Jan-19 12:00N 24°30' W 080°48'8318.8 020 / 221020.910.8 17.0 24.0
2015-Jan-19 07:33N 25°41' W 080°00'1818.3
2015-Jan-19 06:33N 25°60' W 079°59'1918.7
2015-Jan-19 05:34N 26°18' W 079°57'1818.3
2015-Jan-19 04:34N 26°36' W 079°56'1717.4
2015-Jan-19 03:34N 26°54' W 079°55'  
Track history (hours):
 
Tides and Currents Weather Stations Pressure Air Temp Water Temp Dewpoint Dewpoint Depression Visibility Wind Speed Wind Dir Waves Ship Positions

Explorer Of The Seas

Operator: Royal Caribbean Cruises Ltd

Last reported at 2015-Jan-28 09:33 UTC. Time now 2015-Jan-29 04:14 UTC.
Position N 26°12' W 079°13'.

Length 311 m; draft 9.2 m.

Type: Passenger vessel. MMSI: 311316000.

Date/timePositionNaut miles runAvg speedWind from/ knotsBaromVisibWave heightAir tempDewpointWater temp
2015-Jan-28 09:33N 26°12' W 079°13'1211.7
2015-Jan-28 08:33N 26°04' W 079°23'1211.6
2015-Jan-28 07:33N 25°53' W 079°27'1211.7
2015-Jan-28 06:33N 25°42' W 079°30'51617.0
2015-Jan-27 00:12N 20°32' W 086°58'3 3.9
2015-Jan-26 23:29N 20°29' W 086°59'0 0.0
2015-Jan-26 22:29N 20°29' W 086°59'0 0.0
2015-Jan-26 21:29N 20°29' W 086°59'0 0.0
2015-Jan-26 20:29N 20°29' W 086°59'0 0.0
2015-Jan-26 19:32N 20°29' W 086°59'0 0.0
2015-Jan-26 18:32N 20°29' W 086°59'0 0.0
2015-Jan-26 17:32N 20°29' W 086°59'0 0.0
2015-Jan-26 16:32N 20°29' W 086°59'0 0.0
2015-Jan-26 15:32N 20°29' W 086°59'0 0.0
2015-Jan-26 14:32N 20°29' W 086°59'1 0.7
2015-Jan-26 13:33N 20°29' W 086°59'49317.6
2015-Jan-25 09:33N 25°39' W 080°01'3 6.1
2015-Jan-25 09:00N 25°42' W 080°00'1431.3 310 / 131016.8 13.0
2015-Jan-25 08:33N 25°56' W 079°60'1717.0
2015-Jan-25 07:33N 26°13' W 079°58'1717.1
2015-Jan-25 06:33N 26°30' W 079°57'1816.5
2015-Jan-25 05:28N 26°48' W 079°55'1415.4
2015-Jan-25 04:32N 27°02' W 079°54'42 2.0
2015-Jan-24 08:00N 27°42' W 079°42'96 3.9 220 / 191012.0 22.0
2015-Jan-23 07:13N 26°10' W 079°13'1116.7
2015-Jan-23 06:33N 26°03' W 079°23'1818.0
2015-Jan-23 05:34N 25°46' W 079°29'52117.3
2015-Jan-21 23:33N 20°30' W 086°59'1 1.5
2015-Jan-21 22:41N 20°29' W 086°59'0 0.0
2015-Jan-21 22:29N 20°29' W 086°59'0 0.0
2015-Jan-21 21:29N 20°29' W 086°59'0 0.0
2015-Jan-21 20:29N 20°29' W 086°59'0 0.0
2015-Jan-21 19:29N 20°29' W 086°59'0 0.0
2015-Jan-21 18:23N 20°29' W 086°59'0 0.0
2015-Jan-21 17:29N 20°29' W 086°59'0 0.0
2015-Jan-21 16:23N 20°29' W 086°59'0 0.0
2015-Jan-21 15:32N 20°29' W 086°59'0 0.0
2015-Jan-21 14:32N 20°29' W 086°59'0 0.0
2015-Jan-21 13:32N 20°29' W 086°59'0 0.3
2015-Jan-21 12:33N 20°29' W 086°59'1811.8
2015-Jan-21 11:00N 20°12' W 087°06'45 1.8 060 / 91014.3 23.0
2015-Jan-20 10:00N 20°18' W 086°18'36918.0 140 / 51014.4 23.0
2015-Jan-19 13:33N 24°21' W 081°18'2918.7
2015-Jan-19 12:00N 24°30' W 080°48'8318.8 020 / 221020.910.8 17.0 24.0
2015-Jan-19 07:33N 25°41' W 080°00'1818.3
2015-Jan-19 06:33N 25°60' W 079°59'1918.7
2015-Jan-19 05:34N 26°18' W 079°57'1818.3
2015-Jan-19 04:34N 26°36' W 079°56'1717.4
2015-Jan-19 03:34N 26°54' W 079°55'  

Dump ship's entire track history